McCormick, South Carolina
Current Conditions -  °F | °C
As of 6:56 AM on Sunday 23 Nov 2014 (Local Time) from KGRD Reporting Station
Light Rain Light Rain  
Wind Chill: 40°   Ceiling: 300
Heat Index: 44°   Visibility: 4mi
Dew Point: 42°   Wind: 7mph
Humidity: 93%   Direction: 50°NE
Pressure: 30.16"   Gusts: NA
Location:  33.91°N, 82.29°W
Report Text: KGRD 231156Z AUTO 05006KT 4SM -RA BR OVC003 07/06 A3016 RMK AO2 SLP214 P0006 60031 70031 T00670056 10083 20056 58021
Loading
Personal Weather Stations






























Interactive Weather Map New forecast layout! Learn more

10-Day Weather Forecast

Advertisements
Track Severe Weather on mobile